Terminal Aerodrome Forecast
Issued by NWS

Home | Current Version | Previous Version | Text Only | Print | Product List | Glossary On
Versions: 1 2 3 4 5 6 7 8 9 10 11 12 13 14 15 16 17 18 19 20
000
FTUS43 KAPX 300318 AAA
TAFPLN
TAF AMD
KPLN 300318Z 3003/3024 27009KT P6SM SHRA BKN013 OVC040
      TEMPO 3003/3005 TSRA SCT013 OVC040CB
     FM300700 31006KT 3SM -SHRA BR OVC004
     FM301400 33012KT P6SM SCT012 BKN060
     FM301800 34015G21KT P6SM BKN150=

USA.gov is the U.S. government's official web portal to all federal, state and local government web resources and services.